createdAt,value
2018-08-03T00:00:46.267Z,101451.73
2018-08-03T00:03:15.029Z,101452.94
2018-08-03T00:05:43.840Z,101454.11
2018-08-03T00:08:12.641Z,101454.86
2018-08-03T00:10:41.414Z,101448.38
2018-08-03T00:13:10.277Z,101450.10
2018-08-03T00:15:39.072Z,101449.98
2018-08-03T00:18:07.889Z,101455.52
2018-08-03T00:20:36.685Z,101452.61
2018-08-03T00:23:05.559Z,101452.19
2018-08-03T00:25:34.383Z,101459.28
2018-08-03T00:28:03.150Z,101456.93
2018-08-03T00:30:31.933Z,101454.93
2018-08-03T00:33:00.778Z,101458.80
2018-08-03T00:35:29.541Z,101459.41
2018-08-03T00:37:58.470Z,101454.11
2018-08-03T00:40:27.256Z,101455.80
2018-08-03T00:42:56.042Z,101452.72
2018-08-03T00:45:24.809Z,101453.20
2018-08-03T00:47:53.570Z,101457.13
2018-08-03T00:50:22.338Z,101455.81
2018-08-03T00:52:51.094Z,101455.79
2018-08-03T00:55:19.873Z,101462.59
2018-08-03T00:57:48.664Z,101457.90
2018-08-03T01:00:17.429Z,101463.00
2018-08-03T01:02:46.213Z,101468.61
2018-08-03T01:05:15.003Z,101463.58
2018-08-03T01:07:43.769Z,101459.80
2018-08-03T01:10:12.537Z,101460.31
2018-08-03T01:12:41.377Z,101456.97
2018-08-03T01:15:10.189Z,101460.49
2018-08-03T01:17:38.948Z,101465.22
2018-08-03T01:20:07.705Z,101456.67
2018-08-03T01:22:36.474Z,101464.48
2018-08-03T01:25:05.664Z,101466.66
2018-08-03T01:27:34.553Z,101459.90
2018-08-03T01:30:03.473Z,101460.25
2018-08-03T01:32:32.238Z,101461.94
2018-08-03T01:35:01.044Z,101462.50
2018-08-03T01:37:29.812Z,101465.61
2018-08-03T01:39:58.594Z,101459.25
2018-08-03T01:42:27.356Z,101464.23
2018-08-03T01:44:56.139Z,101469.02
2018-08-03T01:47:24.881Z,101461.67
2018-08-03T01:49:53.646Z,101470.08
2018-08-03T01:52:22.425Z,101466.09
2018-08-03T01:54:51.206Z,101461.89
2018-08-03T01:57:19.978Z,101464.45
2018-08-03T01:59:48.841Z,101469.68
2018-08-03T02:02:17.593Z,101466.73
2018-08-03T02:04:46.356Z,101468.82
2018-08-03T02:07:15.129Z,101472.50
2018-08-03T02:09:43.880Z,101473.16
2018-08-03T02:12:12.653Z,101474.14
2018-08-03T02:14:41.415Z,101477.88
2018-08-03T02:17:10.195Z,101479.02
2018-08-03T02:19:38.962Z,101482.27
2018-08-03T02:22:07.745Z,101446.30
2018-08-03T02:24:36.501Z,101481.91
2018-08-03T02:27:05.261Z,101478.73
2018-08-03T02:29:34.023Z,101489.15
2018-08-03T02:32:02.796Z,101488.41
2018-08-03T02:34:31.557Z,101492.02
2018-08-03T02:37:00.319Z,101487.70
2018-08-03T02:39:29.100Z,101490.59
2018-08-03T02:41:57.886Z,101480.39
2018-08-03T02:44:26.644Z,101482.98
2018-08-03T02:46:55.398Z,101483.59
2018-08-03T02:49:24.157Z,101483.88
2018-08-03T02:51:53.025Z,101487.58
2018-08-03T02:54:21.809Z,101498.87
2018-08-03T02:56:50.600Z,101491.18
2018-08-03T02:59:19.368Z,101494.49
2018-08-03T03:01:48.137Z,101499.16
2018-08-03T03:04:16.869Z,101494.37
2018-08-03T03:06:45.642Z,101511.52
2018-08-03T03:09:14.408Z,101505.01
2018-08-03T03:11:43.174Z,101507.83
2018-08-03T03:14:11.993Z,101510.89
2018-08-03T03:16:40.758Z,101515.25
2018-08-03T03:19:09.533Z,101514.77
2018-08-03T03:21:38.296Z,101516.38
2018-08-03T03:24:07.073Z,101512.28
2018-08-03T03:26:35.890Z,101514.16
2018-08-03T03:29:04.673Z,101520.34
2018-08-03T03:31:33.444Z,101520.56
2018-08-03T03:34:02.368Z,101520.66
2018-08-03T03:36:31.271Z,101516.07
2018-08-03T03:39:00.081Z,101514.96
2018-08-03T03:41:28.833Z,101517.34
2018-08-03T03:43:57.633Z,101511.87
2018-08-03T03:46:26.396Z,101514.00
2018-08-03T03:48:55.159Z,101514.94
2018-08-03T03:51:23.951Z,101515.55
2018-08-03T03:53:52.747Z,101510.11
2018-08-03T03:56:21.510Z,101519.01
2018-08-03T03:58:50.543Z,101521.27
2018-08-03T04:01:19.303Z,101518.92
2018-08-03T04:03:48.081Z,101520.55
2018-08-03T04:06:16.853Z,101513.92
2018-08-03T04:08:45.688Z,101518.22
2018-08-03T04:11:14.499Z,101514.20
2018-08-03T04:13:43.285Z,101524.94
2018-08-03T04:16:12.050Z,101526.00
2018-08-03T04:18:40.809Z,101529.77
2018-08-03T04:21:09.610Z,101522.75
2018-08-03T04:23:38.378Z,101530.23
2018-08-03T04:26:07.173Z,101522.13
2018-08-03T04:28:35.998Z,101510.91
2018-08-03T04:31:04.781Z,101512.98
2018-08-03T04:33:33.550Z,101521.56
2018-08-03T04:36:02.345Z,101509.11
2018-08-03T04:38:31.115Z,101519.62
2018-08-03T04:40:59.936Z,101513.91
2018-08-03T04:43:28.729Z,101522.50
2018-08-03T04:45:57.478Z,101513.09
2018-08-03T04:48:26.230Z,101519.92
2018-08-03T04:50:55.008Z,101512.65
2018-08-03T04:53:23.766Z,101516.27
2018-08-03T04:55:52.524Z,101514.22
2018-08-03T04:58:21.288Z,101514.67
2018-08-03T05:00:50.133Z,101507.20
2018-08-03T05:03:18.909Z,101505.03
2018-08-03T05:05:47.667Z,101500.80
2018-08-03T05:08:16.435Z,101490.13
2018-08-03T05:10:45.241Z,101496.27
2018-08-03T05:13:14.089Z,101496.27
2018-08-03T05:15:42.865Z,101489.77
2018-08-03T05:18:11.622Z,101504.00
2018-08-03T05:20:40.407Z,101496.88
2018-08-03T05:23:09.174Z,101502.49
2018-08-03T05:25:37.944Z,101501.80
2018-08-03T05:28:06.727Z,101489.30
2018-08-03T05:30:35.491Z,101489.19
2018-08-03T05:33:04.306Z,101494.67
2018-08-03T05:35:33.181Z,101494.27
2018-08-03T05:38:01.897Z,101487.38
2018-08-03T05:40:30.654Z,101485.16
2018-08-03T05:42:59.461Z,101488.13
2018-08-03T05:45:28.298Z,101482.61
2018-08-03T05:47:57.031Z,101492.58
2018-08-03T05:50:25.805Z,101450.09
2018-08-03T05:52:54.576Z,101496.56
2018-08-03T05:55:23.370Z,101490.64
2018-08-03T05:57:52.143Z,101489.70
2018-08-03T06:00:20.892Z,101489.76
2018-08-03T06:02:49.801Z,101492.91
2018-08-03T06:05:18.585Z,101489.00
2018-08-03T06:07:47.333Z,101489.70
2018-08-03T06:10:16.085Z,101497.82
2018-08-03T06:12:44.871Z,101493.23
2018-08-03T06:15:13.613Z,101503.66
2018-08-03T06:17:42.371Z,101502.82
2018-08-03T06:20:12.861Z,101503.07
2018-08-03T06:22:42.165Z,101506.50
2018-08-03T06:25:11.316Z,101503.38
2018-08-03T06:27:40.114Z,101499.79
2018-08-03T06:30:10.802Z,101500.98
2018-08-03T06:32:39.754Z,101501.20
2018-08-03T06:35:08.695Z,101495.70
2018-08-03T06:37:37.779Z,101495.52
2018-08-03T06:40:06.569Z,101495.00
2018-08-03T06:42:35.389Z,101494.12
2018-08-03T06:45:04.262Z,101473.42
2018-08-03T06:47:33.036Z,101498.73
2018-08-03T06:50:01.832Z,101495.81
2018-08-03T06:52:30.612Z,101500.11
2018-08-03T06:54:59.453Z,101460.80
2018-08-03T06:57:28.249Z,101484.84
2018-08-03T06:59:57.045Z,101484.23
2018-08-03T07:02:25.826Z,101486.14
2018-08-03T07:04:54.605Z,101480.93
2018-08-03T07:07:23.367Z,101485.66
2018-08-03T07:09:52.136Z,101482.45
2018-08-03T07:12:20.913Z,101491.74
2018-08-03T07:14:49.730Z,101488.45
2018-08-03T07:17:19.157Z,101489.97
2018-08-03T07:19:47.949Z,101483.16
2018-08-03T07:22:16.710Z,101496.34
2018-08-03T07:24:45.473Z,101483.16
2018-08-03T07:27:14.269Z,101489.09
2018-08-03T07:29:43.028Z,101475.13
2018-08-03T07:32:12.000Z,101485.14
2018-08-03T07:34:40.646Z,101487.23
2018-08-03T07:37:09.414Z,101483.88
2018-08-03T07:39:38.153Z,101488.08
2018-08-03T07:42:06.930Z,101494.91
2018-08-03T07:44:35.876Z,101491.31
2018-08-03T07:47:04.672Z,101498.46
2018-08-03T07:49:33.465Z,101495.95
2018-08-03T07:52:02.265Z,101501.42
2018-08-03T07:54:37.540Z,101506.27
2018-08-03T07:57:06.950Z,101488.97
2018-08-03T07:59:35.767Z,101481.41
2018-08-03T08:02:04.590Z,101482.28
2018-08-03T08:04:33.347Z,101484.09
2018-08-03T08:07:02.136Z,101479.14
2018-08-03T08:09:30.968Z,101478.01
2018-08-03T08:11:59.738Z,101477.08
2018-08-03T08:14:28.534Z,101479.50
2018-08-03T08:16:57.362Z,101472.95
2018-08-03T08:19:26.960Z,101431.36
2018-08-03T08:21:55.689Z,101480.58
2018-08-03T08:24:24.453Z,101489.96
2018-08-03T08:26:53.249Z,101489.07
2018-08-03T08:29:21.997Z,101454.06
2018-08-03T08:31:50.827Z,101494.11
2018-08-03T08:34:19.586Z,101500.63
2018-08-03T08:36:48.342Z,101495.34
2018-08-03T08:39:17.135Z,101503.29
2018-08-03T08:41:45.901Z,101487.20
2018-08-03T08:44:14.768Z,101498.20
2018-08-03T08:46:43.925Z,101473.56
2018-08-03T08:49:12.732Z,101499.52
2018-08-03T08:51:41.557Z,101508.47
2018-08-03T08:54:10.339Z,101502.25
2018-08-03T08:56:39.093Z,101500.94
2018-08-03T08:59:07.902Z,101497.58
2018-08-03T09:01:36.700Z,101506.52
2018-08-03T09:04:05.517Z,101504.86
2018-08-03T09:06:34.341Z,101503.72
2018-08-03T09:09:03.224Z,101509.48
2018-08-03T09:11:31.985Z,101503.06
2018-08-03T09:14:00.755Z,101507.19
2018-08-03T09:16:29.553Z,101506.84
2018-08-03T09:18:58.429Z,101499.42
2018-08-03T09:21:27.188Z,101482.77
2018-08-03T09:23:55.941Z,101486.06
2018-08-03T09:26:24.742Z,101486.69
2018-08-03T09:28:53.522Z,101474.28
2018-08-03T09:31:22.379Z,101476.52
2018-08-03T09:33:51.137Z,101478.27
2018-08-03T09:36:19.962Z,101478.07
2018-08-03T09:38:48.784Z,101482.75
2018-08-03T09:41:17.547Z,101480.58
2018-08-03T09:43:46.361Z,101476.85
2018-08-03T09:46:15.140Z,101472.17
2018-08-03T09:48:43.950Z,101464.23
2018-08-03T09:51:12.767Z,101475.38
2018-08-03T09:53:41.524Z,101470.38
2018-08-03T09:56:10.312Z,101471.70
2018-08-03T09:58:39.094Z,101467.83
2018-08-03T10:01:11.341Z,101470.05
2018-08-03T10:03:41.065Z,101464.34
2018-08-03T10:06:10.158Z,101470.08
2018-08-03T10:08:38.937Z,101461.03
2018-08-03T10:11:08.342Z,101464.92
2018-08-03T10:13:37.132Z,101461.00
2018-08-03T10:16:05.903Z,101469.75
2018-08-03T10:18:34.698Z,101462.73
2018-08-03T10:21:03.474Z,101459.70
2018-08-03T10:23:32.233Z,101471.17
2018-08-03T10:26:01.047Z,101463.66
2018-08-03T10:28:29.830Z,101462.17
2018-08-03T10:30:58.640Z,101455.84
2018-08-03T10:33:27.401Z,101462.56
2018-08-03T10:35:56.196Z,101459.20
2018-08-03T10:38:25.010Z,101461.33
2018-08-03T10:40:53.791Z,101462.91
2018-08-03T10:43:22.585Z,101460.98
2018-08-03T10:45:51.345Z,101463.41
2018-08-03T10:48:20.124Z,101465.97
2018-08-03T10:50:49.092Z,101459.23
2018-08-03T10:53:17.881Z,101462.12
2018-08-03T10:55:46.707Z,101457.88
2018-08-03T10:58:15.506Z,101455.98
2018-08-03T11:00:44.310Z,101457.22
2018-08-03T11:03:13.119Z,101452.33
2018-08-03T11:05:41.900Z,101447.41
2018-08-03T11:08:10.687Z,101453.81
2018-08-03T11:10:39.517Z,101446.41
2018-08-03T11:13:08.308Z,101450.64
2018-08-03T11:15:37.078Z,101444.59
2018-08-03T11:18:06.025Z,101444.40
2018-08-03T11:20:34.791Z,101441.03
2018-08-03T11:23:03.585Z,101442.42
2018-08-03T11:25:32.387Z,101436.82
2018-08-03T11:28:01.169Z,101435.00
2018-08-03T11:30:29.954Z,101433.94
2018-08-03T11:32:58.729Z,101424.54
2018-08-03T11:35:27.504Z,101426.91
2018-08-03T11:37:56.299Z,101433.65
2018-08-03T11:40:25.062Z,101412.39
2018-08-03T11:42:53.813Z,101421.66
2018-08-03T11:45:22.589Z,101423.38
2018-08-03T11:47:51.358Z,101423.20
2018-08-03T11:50:20.121Z,101429.95
2018-08-03T11:52:48.925Z,101426.91
2018-08-03T11:55:17.750Z,101424.58
2018-08-03T11:57:46.512Z,101411.72
2018-08-03T12:00:15.320Z,101413.06
2018-08-03T12:02:44.082Z,101405.97
2018-08-03T12:05:12.833Z,101408.69
2018-08-03T12:07:41.599Z,101408.34
2018-08-03T12:10:10.366Z,101404.97
2018-08-03T12:12:39.131Z,101409.87
2018-08-03T12:15:07.926Z,101403.32
2018-08-03T12:17:36.685Z,101399.77
2018-08-03T12:20:05.629Z,101396.22
2018-08-03T12:22:34.398Z,101412.95
2018-08-03T12:25:03.159Z,101412.05
2018-08-03T12:27:31.938Z,101407.88
2018-08-03T12:30:00.756Z,101396.23
2018-08-03T12:32:29.527Z,101396.20
2018-08-03T12:34:58.324Z,101407.38
2018-08-03T12:37:27.123Z,101410.75
2018-08-03T12:39:55.897Z,101405.16
2018-08-03T12:42:24.673Z,101401.64
2018-08-03T12:44:53.469Z,101394.03
2018-08-03T12:47:22.201Z,101394.66
2018-08-03T12:49:50.970Z,101396.31
2018-08-03T12:52:19.765Z,101405.14
2018-08-03T12:54:48.529Z,101392.00
2018-08-03T12:57:17.289Z,101395.30
2018-08-03T12:59:46.194Z,101393.15
2018-08-03T13:02:14.968Z,101394.16
2018-08-03T13:04:43.768Z,101387.72
2018-08-03T13:07:12.597Z,101385.92
2018-08-03T13:09:41.425Z,101392.80
2018-08-03T13:12:10.298Z,101399.06
2018-08-03T13:14:39.074Z,101392.47
2018-08-03T13:17:07.880Z,101398.36
2018-08-03T13:19:36.658Z,101395.10
2018-08-03T13:22:05.443Z,101384.14
2018-08-03T13:24:34.214Z,101395.63
2018-08-03T13:27:03.037Z,101387.53
2018-08-03T13:29:32.080Z,101392.28
2018-08-03T13:32:00.812Z,101384.20
2018-08-03T13:34:29.553Z,101376.77
2018-08-03T13:36:58.328Z,101384.48
2018-08-03T13:39:27.104Z,101374.12
2018-08-03T13:41:56.105Z,101369.09
2018-08-03T13:44:24.887Z,101365.52
2018-08-03T13:46:53.633Z,101368.13
2018-08-03T13:49:22.469Z,101372.85
2018-08-03T13:51:51.254Z,101361.81
2018-08-03T13:54:20.038Z,101375.48
2018-08-03T13:56:48.836Z,101373.13
2018-08-03T13:59:17.600Z,101373.66
2018-08-03T14:01:57.333Z,101363.53
2018-08-03T14:04:26.126Z,101364.85
2018-08-03T14:06:54.893Z,101362.34
2018-08-03T14:09:23.682Z,101356.42
2018-08-03T14:11:52.474Z,101356.60
2018-08-03T14:14:21.257Z,101349.83
2018-08-03T14:16:50.054Z,101347.63
2018-08-03T14:19:18.973Z,101348.12
2018-08-03T14:21:47.739Z,101355.56
2018-08-03T14:24:16.521Z,101338.98
2018-08-03T14:26:45.298Z,101346.43
2018-08-03T14:29:14.050Z,101353.15
2018-08-03T14:31:42.871Z,101359.58
2018-08-03T14:34:11.644Z,101349.78
2018-08-03T14:36:40.468Z,101346.08
2018-08-03T14:39:10.509Z,101348.09
2018-08-03T14:41:39.469Z,101344.03
2018-08-03T14:44:09.181Z,101345.72
2018-08-03T14:46:38.907Z,101346.73
2018-08-03T14:49:07.762Z,101351.44
2018-08-03T14:51:37.798Z,101341.96
2018-08-03T14:54:07.500Z,101344.27
2018-08-03T14:56:36.377Z,101344.73
2018-08-03T14:59:05.247Z,101341.17
2018-08-03T15:01:34.009Z,101342.94
2018-08-03T15:04:02.842Z,101342.25
2018-08-03T15:06:31.669Z,101346.83
2018-08-03T15:09:00.488Z,101340.18
2018-08-03T15:11:29.362Z,101347.61
2018-08-03T15:13:58.175Z,101340.88
2018-08-03T15:16:27.241Z,101333.11
2018-08-03T15:18:57.188Z,101330.98
2018-08-03T15:21:26.028Z,101332.97
2018-08-03T15:23:54.813Z,101321.72
2018-08-03T15:26:23.625Z,101335.73
2018-08-03T15:28:52.384Z,101337.31
2018-08-03T15:31:21.180Z,101338.16
2018-08-03T15:33:49.981Z,101333.59
2018-08-03T15:36:18.736Z,101343.55
2018-08-03T15:38:47.519Z,101343.88
2018-08-03T15:41:16.294Z,101338.80
2018-08-03T15:43:45.077Z,101347.28
2018-08-03T15:46:13.856Z,101336.78
2018-08-03T15:48:42.801Z,101342.70
2018-08-03T15:51:11.561Z,101334.74
2018-08-03T15:53:40.341Z,101340.18
2018-08-03T15:56:09.117Z,101332.09
2018-08-03T15:58:37.904Z,101328.01
2018-08-03T16:01:07.854Z,101328.31
2018-08-03T16:03:36.650Z,101322.56
2018-08-03T16:06:05.494Z,101318.15
2018-08-03T16:08:34.300Z,101316.70
2018-08-03T16:11:03.124Z,101315.35
2018-08-03T16:13:31.910Z,101307.89
2018-08-03T16:16:00.664Z,101304.86
2018-08-03T16:18:29.428Z,101305.19
2018-08-03T16:20:58.246Z,101308.85
2018-08-03T16:23:27.025Z,101304.09
2018-08-03T16:25:55.830Z,101305.45
2018-08-03T16:28:24.629Z,101298.19
2018-08-03T16:30:53.423Z,101298.72
2018-08-03T16:33:22.165Z,101292.28
2018-08-03T16:35:50.955Z,101295.64
2018-08-03T16:38:19.721Z,101297.63
2018-08-03T16:40:48.516Z,101292.28
2018-08-03T16:43:17.319Z,101287.92
2018-08-03T16:45:46.125Z,101285.58
2018-08-03T16:48:14.942Z,101285.58
2018-08-03T16:50:43.792Z,101283.90
2018-08-03T16:53:12.560Z,101284.27
2018-08-03T16:55:41.435Z,101281.75
2018-08-03T16:58:10.223Z,101284.88
2018-08-03T17:00:39.021Z,101292.67
2018-08-03T17:03:07.832Z,101288.45
2018-08-03T17:05:36.594Z,101284.88
2018-08-03T17:08:05.468Z,101286.43
2018-08-03T17:10:34.305Z,101286.43
2018-08-03T17:13:03.056Z,101286.07
2018-08-03T17:15:31.881Z,101295.20
2018-08-03T17:18:00.642Z,101288.97
2018-08-03T17:20:29.409Z,101278.34
2018-08-03T17:22:58.201Z,101283.61
2018-08-03T17:25:26.988Z,101283.45
2018-08-03T17:27:55.744Z,101282.06
2018-08-03T17:30:24.530Z,101276.33
2018-08-03T17:32:53.319Z,101281.18
2018-08-03T17:35:22.073Z,101281.05
2018-08-03T17:37:50.932Z,101283.59
2018-08-03T17:40:19.941Z,101275.52
2018-08-03T17:42:48.793Z,101275.72
2018-08-03T17:45:17.570Z,101274.89
2018-08-03T17:47:46.382Z,101274.75
2018-08-03T17:50:15.184Z,101286.78
2018-08-03T17:52:43.970Z,101281.86
2018-08-03T17:55:12.747Z,101278.14
2018-08-03T17:57:41.517Z,101278.45
2018-08-03T18:00:10.323Z,101276.95
2018-08-03T18:02:39.133Z,101280.16
2018-08-03T18:05:07.980Z,101283.19
2018-08-03T18:07:36.748Z,101281.81
2018-08-03T18:10:06.482Z,101277.93
2018-08-03T18:12:35.251Z,101277.08
2018-08-03T18:15:04.169Z,101279.61
2018-08-03T18:17:32.988Z,101276.94
2018-08-03T18:20:01.850Z,101281.63
2018-08-03T18:22:30.610Z,101283.50
2018-08-03T18:24:59.442Z,101278.78
2018-08-03T18:27:28.221Z,101284.19
2018-08-03T18:29:57.042Z,101283.50
2018-08-03T18:32:25.880Z,101286.23
2018-08-03T18:34:54.711Z,101278.31
2018-08-03T18:37:23.529Z,101286.25
2018-08-03T18:39:52.305Z,101285.25
2018-08-03T18:42:21.093Z,101289.70
2018-08-03T18:44:49.864Z,101294.14
2018-08-03T18:47:18.652Z,101301.26
2018-08-03T18:49:47.404Z,101294.13
2018-08-03T18:52:16.236Z,101291.43
2018-08-03T18:54:45.015Z,101287.94
2018-08-03T18:57:13.846Z,101293.19
2018-08-03T18:59:42.617Z,101285.78
2018-08-03T19:02:11.389Z,101293.39
2018-08-03T19:04:40.179Z,101293.25
2018-08-03T19:07:08.985Z,101292.06
2018-08-03T19:09:37.778Z,101292.94
2018-08-03T19:12:06.557Z,101289.55
2018-08-03T19:14:35.366Z,101286.14
2018-08-03T19:17:04.225Z,101291.54
2018-08-03T19:19:32.950Z,101293.22
2018-08-03T19:22:01.891Z,101294.77
2018-08-03T19:24:30.831Z,101295.09
2018-08-03T19:26:59.622Z,101294.30
2018-08-03T19:29:28.434Z,101292.75
2018-08-03T19:31:57.302Z,101287.88
2018-08-03T19:34:26.066Z,101287.20
2018-08-03T19:36:54.874Z,101287.89
2018-08-03T19:39:23.648Z,101292.25
2018-08-03T19:41:52.437Z,101293.23
2018-08-03T19:44:22.089Z,101286.19
2018-08-03T19:46:50.893Z,101288.33
2018-08-03T19:49:19.658Z,101288.47
2018-08-03T19:51:48.465Z,101289.67
2018-08-03T19:54:17.325Z,101290.02
2018-08-03T19:56:46.409Z,101286.43
2018-08-03T19:59:15.270Z,101285.75
2018-08-03T20:01:44.282Z,101289.66
2018-08-03T20:04:13.058Z,101284.61
2018-08-03T20:06:41.879Z,101286.78
2018-08-03T20:09:12.388Z,101290.68
2018-08-03T20:11:41.264Z,101289.14
2018-08-03T20:14:10.022Z,101284.94
2018-08-03T20:16:38.829Z,101281.72
2018-08-03T20:19:07.714Z,101279.83
2018-08-03T20:21:36.524Z,101278.98
2018-08-03T20:24:05.343Z,101284.84
2018-08-03T20:26:34.122Z,101285.51
2018-08-03T20:29:02.907Z,101283.59
2018-08-03T20:31:31.697Z,101286.95
2018-08-03T20:34:00.450Z,101286.59
2018-08-03T20:36:29.265Z,101287.75
2018-08-03T20:38:58.097Z,101287.97
2018-08-03T20:41:26.874Z,101287.20
2018-08-03T20:43:55.637Z,101280.70
2018-08-03T20:46:24.493Z,101280.38
2018-08-03T20:48:53.561Z,101282.10
2018-08-03T20:51:22.322Z,101269.44
2018-08-03T20:53:51.245Z,101279.23
2018-08-03T20:56:20.620Z,101275.66
2018-08-03T20:58:49.498Z,101283.72
2018-08-03T21:01:18.318Z,101275.09
2018-08-03T21:03:47.220Z,101278.30
2018-08-03T21:06:15.970Z,101276.34
2018-08-03T21:08:44.728Z,101277.93
2018-08-03T21:11:13.548Z,101282.95
2018-08-03T21:13:42.286Z,101284.14
2018-08-03T21:16:11.075Z,101282.43
2018-08-03T21:18:39.882Z,101286.54
2018-08-03T21:21:08.658Z,101277.41
2018-08-03T21:23:37.466Z,101275.30
2018-08-03T21:26:06.273Z,101273.52
2018-08-03T21:28:35.060Z,101272.66
2018-08-03T21:31:03.873Z,101277.87
2018-08-03T21:33:32.690Z,101278.70
2018-08-03T21:36:01.460Z,101275.30
2018-08-03T21:38:30.208Z,101284.03
2018-08-03T21:40:58.982Z,101282.71
2018-08-03T21:43:27.738Z,101281.22
2018-08-03T21:45:56.573Z,101281.50
2018-08-03T21:48:25.329Z,101285.16
2018-08-03T21:50:54.234Z,101288.41
2018-08-03T21:53:22.998Z,101286.75
2018-08-03T21:55:51.754Z,101282.66
2018-08-03T21:58:20.505Z,101284.27
2018-08-03T22:00:49.302Z,101286.06
2018-08-03T22:03:18.131Z,101279.72
2018-08-03T22:05:46.887Z,101281.94
2018-08-03T22:08:15.669Z,101281.98
2018-08-03T22:10:44.726Z,101281.55
2018-08-03T22:13:13.561Z,101286.65
2018-08-03T22:15:42.321Z,101282.11
2018-08-03T22:18:11.073Z,101283.63
2018-08-03T22:20:39.844Z,101282.03
2018-08-03T22:23:08.649Z,101282.81
2018-08-03T22:25:37.429Z,101276.26
2018-08-03T22:28:06.297Z,101277.19
2018-08-03T22:30:35.073Z,101279.49
2018-08-03T22:33:03.858Z,101282.23
2018-08-03T22:35:32.623Z,101246.64
2018-08-03T22:38:01.417Z,101286.53
2018-08-03T22:40:30.172Z,101249.80
2018-08-03T22:42:58.946Z,101282.66
2018-08-03T22:45:27.773Z,101283.86
2018-08-03T22:47:56.529Z,101283.19
2018-08-03T22:50:25.386Z,101283.75
2018-08-03T22:52:54.144Z,101277.34
2018-08-03T22:55:22.887Z,101273.95
2018-08-03T22:57:51.665Z,101277.03
2018-08-03T23:00:20.504Z,101269.41
2018-08-03T23:02:49.279Z,101269.25
2018-08-03T23:05:18.031Z,101265.20
2018-08-03T23:07:46.809Z,101267.65
2018-08-03T23:10:15.561Z,101267.56
2018-08-03T23:12:44.313Z,101269.50
2018-08-03T23:15:13.131Z,101276.20
2018-08-03T23:17:41.925Z,101269.94
2018-08-03T23:20:10.686Z,101274.75
2018-08-03T23:22:39.458Z,101275.73
2018-08-03T23:25:08.342Z,101274.97
2018-08-03T23:27:37.109Z,101273.49
2018-08-03T23:30:07.281Z,101268.17
2018-08-03T23:32:36.080Z,101269.55
2018-08-03T23:35:04.845Z,101264.17
2018-08-03T23:37:33.787Z,101264.25
2018-08-03T23:40:02.593Z,101259.67
2018-08-03T23:42:31.358Z,101257.56
2018-08-03T23:45:00.154Z,101267.92
2018-08-03T23:47:28.958Z,101271.92
2018-08-03T23:49:57.702Z,101273.98
2018-08-03T23:52:26.532Z,101269.68
2018-08-03T23:54:55.387Z,101262.76
2018-08-03T23:57:24.183Z,101262.77
2018-08-03T23:59:53.060Z,101267.06
